City Of Jonesville — WDC2654 — position and weather

sailwx.info

Track history (hours):
 
Tides and Currents Weather Stations Pressure Air Temp Water Temp Dewpoint Dewpoint Depression Visibility Wind Speed Wind Dir Waves Ship Positions

City Of Jonesville

Owner: Kirby Inland Marine LP, Houston, TX. More information available from US FCC via Universal Licensing System and Coast Guard Vessel Documentation Center.

Last reported at 2017-Oct-07 07:18 UTC. Time now 2017-Oct-17 22:28 UTC.
Position N 29°49' W 092°04'.
Warning: this ship's position is 10 days out of date.

Length 203 m; draft 2.1 m.

Type: . MMSI: 366996050.

Date/timePositionNaut miles runAvg speedWind from/ knotsBaromVisibWave heightAir tempDewpointWater temp
2017-Oct-07 07:18N 29°49' W 092°04'2 5.6
2017-Oct-07 07:00N 29°48' W 092°05'3 5.4
2017-Oct-07 06:30N 29°47' W 092°08'2 4.4
2017-Oct-07 06:00N 29°47' W 092°11'1 2.7
2017-Oct-07 05:30N 29°47' W 092°12'1 2.5
2017-Oct-07 05:00N 29°48' W 092°13'2 3.5
2017-Oct-07 04:30N 29°48' W 092°15'0 0.0
2017-Oct-07 04:00N 29°48' W 092°15'2 3.7
2017-Oct-07 03:30N 29°49' W 092°17'3 4.8
2017-Oct-07 02:55N 29°51' W 092°20'44 5.0
2017-Oct-06 18:06N 29°56' W 093°10'0 4.9
2017-Oct-06 18:00N 29°57' W 093°10'3 5.2
2017-Oct-06 17:30N 29°59' W 093°12'3 5.0
2017-Oct-06 17:00N 30°01' W 093°14'2 4.9
2017-Oct-06 16:30N 30°03' W 093°16'2 5.0
2017-Oct-06 16:00N 30°05' W 093°17'1 2.3
2017-Oct-06 15:30N 30°06' W 093°18'1 0.6
2017-Oct-06 13:44N 30°06' W 093°19'1 3.2
2017-Oct-06 13:30N 30°05' W 093°20'2 0.7
2017-Oct-06 11:20N 30°04' W 093°21'0 0.0
2017-Oct-06 11:00N 30°04' W 093°21'0 0.0
2017-Oct-06 10:30N 30°04' W 093°21'0 0.0
2017-Oct-06 10:00N 30°04' W 093°21'0 0.0
2017-Oct-06 09:30N 30°04' W 093°21'0 0.0
2017-Oct-06 09:00N 30°04' W 093°21'0 0.0
2017-Oct-06 08:30N 30°04' W 093°21'0 0.0
2017-Oct-06 08:00N 30°04' W 093°21'0 0.0
2017-Oct-06 07:30N 30°04' W 093°21'0 0.0
2017-Oct-06 07:00N 30°04' W 093°21'0 0.0
2017-Oct-06 06:30N 30°04' W 093°21'0 0.0
2017-Oct-06 06:00N 30°04' W 093°21'0 0.0
2017-Oct-06 05:30N 30°04' W 093°21'0 0.0
2017-Oct-06 05:00N 30°04' W 093°21'0 0.0
2017-Oct-06 04:30N 30°04' W 093°21'0 0.0
2017-Oct-06 04:00N 30°04' W 093°21'0 0.0
2017-Oct-06 03:30N 30°04' W 093°21'0 0.0
2017-Oct-06 03:00N 30°04' W 093°21'0 0.0
2017-Oct-06 02:30N 30°04' W 093°21'0 0.0
2017-Oct-06 02:00N 30°04' W 093°21'0 0.0
2017-Oct-06 01:30N 30°04' W 093°21'0 0.0
2017-Oct-06 01:00N 30°04' W 093°21'0 0.0
2017-Oct-06 00:30N 30°04' W 093°21'0 0.0
2017-Oct-06 00:00N 30°04' W 093°21'0 0.0
2017-Oct-05 23:30N 30°04' W 093°21'0 0.0
2017-Oct-05 23:00N 30°04' W 093°21'0 0.0
2017-Oct-05 22:30N 30°04' W 093°21'0 0.0
2017-Oct-05 22:00N 30°04' W 093°21'0 0.0
2017-Oct-05 21:30N 30°04' W 093°21'0 0.0
2017-Oct-05 21:00N 30°04' W 093°21'0 0.0
2017-Oct-05 20:30N 30°04' W 093°21'0 0.0
2017-Oct-05 20:00N 30°04' W 093°21'0 0.0
2017-Oct-05 19:30N 30°04' W 093°21'0 0.0
2017-Oct-05 19:00N 30°04' W 093°21'0 0.0
2017-Oct-05 18:30N 30°04' W 093°21'0 0.0
2017-Oct-05 18:00N 30°04' W 093°21'0 0.5
2017-Oct-05 17:30N 30°04' W 093°21'0 0.6
2017-Oct-05 17:00N 30°05' W 093°20'1 0.3
2017-Oct-05 15:30N 30°04' W 093°21'0 0.0
2017-Oct-05 15:00N 30°04' W 093°21'0 0.0
2017-Oct-05 14:30N 30°04' W 093°21'0 0.0
2017-Oct-05 14:00N 30°04' W 093°21'0 0.0
2017-Oct-05 13:30N 30°04' W 093°21'0 0.0
2017-Oct-05 13:00N 30°04' W 093°21'0 0.0
2017-Oct-05 12:30N 30°04' W 093°21'0 0.0
2017-Oct-05 12:00N 30°04' W 093°21'0 0.0
2017-Oct-05 11:30N 30°04' W 093°21'0 0.0
2017-Oct-05 11:00N 30°04' W 093°21'0 0.0
2017-Oct-05 10:30N 30°04' W 093°21'0 0.0
2017-Oct-05 10:00N 30°04' W 093°21'0 0.0
2017-Oct-05 09:30N 30°04' W 093°21'0 0.0
2017-Oct-05 09:00N 30°04' W 093°21'0 0.0
2017-Oct-05 08:30N 30°04' W 093°21'0 0.0
2017-Oct-05 08:00N 30°04' W 093°21'0 0.0
2017-Oct-05 07:30N 30°04' W 093°21'0 0.0
2017-Oct-05 07:00N 30°04' W 093°21'0 0.0
2017-Oct-05 06:30N 30°04' W 093°21'0 0.0
2017-Oct-05 06:00N 30°04' W 093°21'0 0.0
2017-Oct-05 05:30N 30°04' W 093°21'0 0.0
2017-Oct-05 05:00N 30°04' W 093°21'0 0.0
2017-Oct-05 04:30N 30°04' W 093°21'0 0.0
2017-Oct-05 04:00N 30°04' W 093°21'0 0.0
2017-Oct-05 03:30N 30°04' W 093°21'0 0.0
2017-Oct-05 03:00N 30°04' W 093°21'0 0.0
2017-Oct-05 02:30N 30°04' W 093°21'0 0.0
2017-Oct-05 02:00N 30°04' W 093°21'0 0.0
2017-Oct-05 01:30N 30°04' W 093°21'0 0.0
2017-Oct-05 01:00N 30°04' W 093°21'0 0.0
2017-Oct-05 00:30N 30°04' W 093°21'0 0.0
2017-Oct-05 00:00N 30°04' W 093°21'0 0.0
2017-Oct-04 23:30N 30°04' W 093°21'0 0.0
2017-Oct-04 23:00N 30°04' W 093°21'0 0.0
2017-Oct-04 22:30N 30°04' W 093°21'0 0.0
2017-Oct-04 22:00N 30°04' W 093°21'0 0.0
2017-Oct-04 21:30N 30°04' W 093°21'0 0.0
2017-Oct-04 21:00N 30°04' W 093°21'0 0.0
2017-Oct-04 20:30N 30°04' W 093°21'0 0.0
2017-Oct-04 20:00N 30°04' W 093°21'0 0.0
2017-Oct-04 19:30N 30°04' W 093°21'0 0.0
2017-Oct-04 19:00N 30°04' W 093°21'0 0.1
2017-Oct-04 18:30N 30°04' W 093°21'2 4.3
2017-Oct-04 18:00N 30°04' W 093°23'3 5.5
2017-Oct-04 17:30N 30°04' W 093°26'2 4.5
2017-Oct-04 17:00N 30°04' W 093°29'  
Track history (hours):
 
Tides and Currents Weather Stations Pressure Air Temp Water Temp Dewpoint Dewpoint Depression Visibility Wind Speed Wind Dir Waves Ship Positions

City Of Jonesville

Owner: Kirby Inland Marine LP, Houston, TX. More information available from US FCC via Universal Licensing System and Coast Guard Vessel Documentation Center.

Last reported at 2017-Oct-07 07:18 UTC. Time now 2017-Oct-17 22:28 UTC.
Position N 29°49' W 092°04'.
Warning: this ship's position is 10 days out of date.

Length 203 m; draft 2.1 m.

Type: . MMSI: 366996050.

Date/timePositionNaut miles runAvg speedWind from/ knotsBaromVisibWave heightAir tempDewpointWater temp
2017-Oct-07 07:18N 29°49' W 092°04'2 5.6
2017-Oct-07 07:00N 29°48' W 092°05'3 5.4
2017-Oct-07 06:30N 29°47' W 092°08'2 4.4
2017-Oct-07 06:00N 29°47' W 092°11'1 2.7
2017-Oct-07 05:30N 29°47' W 092°12'1 2.5
2017-Oct-07 05:00N 29°48' W 092°13'2 3.5
2017-Oct-07 04:30N 29°48' W 092°15'0 0.0
2017-Oct-07 04:00N 29°48' W 092°15'2 3.7
2017-Oct-07 03:30N 29°49' W 092°17'3 4.8
2017-Oct-07 02:55N 29°51' W 092°20'44 5.0
2017-Oct-06 18:06N 29°56' W 093°10'0 4.9
2017-Oct-06 18:00N 29°57' W 093°10'3 5.2
2017-Oct-06 17:30N 29°59' W 093°12'3 5.0
2017-Oct-06 17:00N 30°01' W 093°14'2 4.9
2017-Oct-06 16:30N 30°03' W 093°16'2 5.0
2017-Oct-06 16:00N 30°05' W 093°17'1 2.3
2017-Oct-06 15:30N 30°06' W 093°18'1 0.6
2017-Oct-06 13:44N 30°06' W 093°19'1 3.2
2017-Oct-06 13:30N 30°05' W 093°20'2 0.7
2017-Oct-06 11:20N 30°04' W 093°21'0 0.0
2017-Oct-06 11:00N 30°04' W 093°21'0 0.0
2017-Oct-06 10:30N 30°04' W 093°21'0 0.0
2017-Oct-06 10:00N 30°04' W 093°21'0 0.0
2017-Oct-06 09:30N 30°04' W 093°21'0 0.0
2017-Oct-06 09:00N 30°04' W 093°21'0 0.0
2017-Oct-06 08:30N 30°04' W 093°21'0 0.0
2017-Oct-06 08:00N 30°04' W 093°21'0 0.0
2017-Oct-06 07:30N 30°04' W 093°21'0 0.0
2017-Oct-06 07:00N 30°04' W 093°21'0 0.0
2017-Oct-06 06:30N 30°04' W 093°21'0 0.0
2017-Oct-06 06:00N 30°04' W 093°21'0 0.0
2017-Oct-06 05:30N 30°04' W 093°21'0 0.0
2017-Oct-06 05:00N 30°04' W 093°21'0 0.0
2017-Oct-06 04:30N 30°04' W 093°21'0 0.0
2017-Oct-06 04:00N 30°04' W 093°21'0 0.0
2017-Oct-06 03:30N 30°04' W 093°21'0 0.0
2017-Oct-06 03:00N 30°04' W 093°21'0 0.0
2017-Oct-06 02:30N 30°04' W 093°21'0 0.0
2017-Oct-06 02:00N 30°04' W 093°21'0 0.0
2017-Oct-06 01:30N 30°04' W 093°21'0 0.0
2017-Oct-06 01:00N 30°04' W 093°21'0 0.0
2017-Oct-06 00:30N 30°04' W 093°21'0 0.0
2017-Oct-06 00:00N 30°04' W 093°21'0 0.0
2017-Oct-05 23:30N 30°04' W 093°21'0 0.0
2017-Oct-05 23:00N 30°04' W 093°21'0 0.0
2017-Oct-05 22:30N 30°04' W 093°21'0 0.0
2017-Oct-05 22:00N 30°04' W 093°21'0 0.0
2017-Oct-05 21:30N 30°04' W 093°21'0 0.0
2017-Oct-05 21:00N 30°04' W 093°21'0 0.0
2017-Oct-05 20:30N 30°04' W 093°21'0 0.0
2017-Oct-05 20:00N 30°04' W 093°21'0 0.0
2017-Oct-05 19:30N 30°04' W 093°21'0 0.0
2017-Oct-05 19:00N 30°04' W 093°21'0 0.0
2017-Oct-05 18:30N 30°04' W 093°21'0 0.0
2017-Oct-05 18:00N 30°04' W 093°21'0 0.5
2017-Oct-05 17:30N 30°04' W 093°21'0 0.6
2017-Oct-05 17:00N 30°05' W 093°20'1 0.3
2017-Oct-05 15:30N 30°04' W 093°21'0 0.0
2017-Oct-05 15:00N 30°04' W 093°21'0 0.0
2017-Oct-05 14:30N 30°04' W 093°21'0 0.0
2017-Oct-05 14:00N 30°04' W 093°21'0 0.0
2017-Oct-05 13:30N 30°04' W 093°21'0 0.0
2017-Oct-05 13:00N 30°04' W 093°21'0 0.0
2017-Oct-05 12:30N 30°04' W 093°21'0 0.0
2017-Oct-05 12:00N 30°04' W 093°21'0 0.0
2017-Oct-05 11:30N 30°04' W 093°21'0 0.0
2017-Oct-05 11:00N 30°04' W 093°21'0 0.0
2017-Oct-05 10:30N 30°04' W 093°21'0 0.0
2017-Oct-05 10:00N 30°04' W 093°21'0 0.0
2017-Oct-05 09:30N 30°04' W 093°21'0 0.0
2017-Oct-05 09:00N 30°04' W 093°21'0 0.0
2017-Oct-05 08:30N 30°04' W 093°21'0 0.0
2017-Oct-05 08:00N 30°04' W 093°21'0 0.0
2017-Oct-05 07:30N 30°04' W 093°21'0 0.0
2017-Oct-05 07:00N 30°04' W 093°21'0 0.0
2017-Oct-05 06:30N 30°04' W 093°21'0 0.0
2017-Oct-05 06:00N 30°04' W 093°21'0 0.0
2017-Oct-05 05:30N 30°04' W 093°21'0 0.0
2017-Oct-05 05:00N 30°04' W 093°21'0 0.0
2017-Oct-05 04:30N 30°04' W 093°21'0 0.0
2017-Oct-05 04:00N 30°04' W 093°21'0 0.0
2017-Oct-05 03:30N 30°04' W 093°21'0 0.0
2017-Oct-05 03:00N 30°04' W 093°21'0 0.0
2017-Oct-05 02:30N 30°04' W 093°21'0 0.0
2017-Oct-05 02:00N 30°04' W 093°21'0 0.0
2017-Oct-05 01:30N 30°04' W 093°21'0 0.0
2017-Oct-05 01:00N 30°04' W 093°21'0 0.0
2017-Oct-05 00:30N 30°04' W 093°21'0 0.0
2017-Oct-05 00:00N 30°04' W 093°21'0 0.0
2017-Oct-04 23:30N 30°04' W 093°21'0 0.0
2017-Oct-04 23:00N 30°04' W 093°21'0 0.0
2017-Oct-04 22:30N 30°04' W 093°21'0 0.0
2017-Oct-04 22:00N 30°04' W 093°21'0 0.0
2017-Oct-04 21:30N 30°04' W 093°21'0 0.0
2017-Oct-04 21:00N 30°04' W 093°21'0 0.0
2017-Oct-04 20:30N 30°04' W 093°21'0 0.0
2017-Oct-04 20:00N 30°04' W 093°21'0 0.0
2017-Oct-04 19:30N 30°04' W 093°21'0 0.0
2017-Oct-04 19:00N 30°04' W 093°21'0 0.1
2017-Oct-04 18:30N 30°04' W 093°21'2 4.3
2017-Oct-04 18:00N 30°04' W 093°23'3 5.5
2017-Oct-04 17:30N 30°04' W 093°26'2 4.5
2017-Oct-04 17:00N 30°04' W 093°29'  

Dump ship's entire track history